AMX716 MMCV-MMTJ
Flight info
| Callsign | AMX716 |
|---|---|
| Flight time | 2h 59m |
| Altitude | 34000 |
| Route | CVM4A CVM UJ38 RUDLO UT11 OMISI/N0449F360 UT11 DUMBO DCT TANRI TANRI1B |
| Aircraft | B737/M-SDE2E3FGHIRWXY/LB1 |
Departure
| Time | 2026-04-29 23:08 |
|---|---|
| Airport | General Pedro Jose Mendez International Airport (MMCV) |
Arrival
| Time | 2026-04-30 02:07 |
|---|---|
| Airport | General Abelardo L. Rodriguez International Airport (MMTJ) |
| Time | Latitude | Longitude | Altitude | Speed | Heading |
|---|---|---|---|---|---|
| 2026-04-29 22:48 | 23.71143 | -98.95653 | 787 ft | 0 kts | 65° |
| 2026-04-29 23:01 | 23.71116 | -98.95683 | 787 ft | 4 kts | 1° |
| 2026-04-29 23:01 | 23.71098 | -98.95680 | 787 ft | 1 kts | 336° |
| 2026-04-29 23:01 | 23.71096 | -98.95679 | 787 ft | 0 kts | 336° |
| 2026-04-29 23:04 | 23.71097 | -98.95679 | 787 ft | 1 kts | 336° |
| 2026-04-29 23:04 | 23.71122 | -98.95691 | 787 ft | 7 kts | 336° |
| 2026-04-29 23:05 | 23.71160 | -98.95740 | 787 ft | 9 kts | 282° |
| 2026-04-29 23:05 | 23.71165 | -98.95807 | 787 ft | 9 kts | 307° |
| 2026-04-29 23:05 | 23.71220 | -98.95836 | 787 ft | 9 kts | 338° |
| 2026-04-29 23:05 | 23.71276 | -98.95862 | 787 ft | 9 kts | 335° |
| 2026-04-29 23:06 | 23.71312 | -98.95913 | 787 ft | 9 kts | 256° |
| 2026-04-29 23:06 | 23.71282 | -98.95975 | 787 ft | 9 kts | 242° |
| 2026-04-29 23:06 | 23.71257 | -98.96037 | 787 ft | 9 kts | 246° |
| 2026-04-29 23:06 | 23.71226 | -98.96063 | 787 ft | 6 kts | 179° |
| 2026-04-29 23:07 | 23.71198 | -98.96051 | 787 ft | 8 kts | 155° |
| 2026-04-29 23:07 | 23.70937 | -98.95929 | 787 ft | 76 kts | 156° |
| 2026-04-29 23:07 | 23.70262 | -98.95610 | 787 ft | 135 kts | 158° |
| 2026-04-29 23:07 | 23.69262 | -98.95139 | 932 ft | 169 kts | 161° |
| 2026-04-29 23:08 | 23.68147 | -98.94664 | 1443 ft | 181 kts | 161° |
| 2026-04-29 23:08 | 23.66963 | -98.94058 | 2022 ft | 195 kts | 148° |
| 2026-04-29 23:08 | 23.65878 | -98.93264 | 2956 ft | 186 kts | 153° |
| 2026-04-29 23:08 | 23.64649 | -98.92600 | 3305 ft | 211 kts | 158° |
| 2026-04-29 23:09 | 23.63218 | -98.91919 | 3513 ft | 236 kts | 158° |
| 2026-04-29 23:09 | 23.61645 | -98.91146 | 3812 ft | 262 kts | 156° |
| 2026-04-29 23:09 | 23.59969 | -98.90260 | 4469 ft | 269 kts | 152° |
| 2026-04-29 23:09 | 23.58568 | -98.88944 | 5363 ft | 268 kts | 126° |
| 2026-04-29 23:10 | 23.57794 | -98.87103 | 6212 ft | 271 kts | 104° |
| 2026-04-29 23:10 | 23.57707 | -98.85034 | 6892 ft | 278 kts | 83° |
| 2026-04-29 23:10 | 23.58385 | -98.83035 | 7464 ft | 288 kts | 56° |
| 2026-04-29 23:10 | 23.59821 | -98.81504 | 8072 ft | 295 kts | 31° |
| 2026-04-29 23:11 | 23.61769 | -98.80795 | 8702 ft | 299 kts | 4° |
| 2026-04-29 23:11 | 23.63776 | -98.81071 | 9439 ft | 297 kts | 338° |
| 2026-04-29 23:11 | 23.65507 | -98.82323 | 10038 ft | 298 kts | 310° |
| 2026-04-29 23:11 | 23.66603 | -98.84236 | 10347 ft | 311 kts | 290° |
| 2026-04-29 23:12 | 23.67271 | -98.86550 | 10515 ft | 329 kts | 285° |
| 2026-04-29 23:12 | 23.67881 | -98.89024 | 10634 ft | 347 kts | 285° |
| 2026-04-29 23:12 | 23.68534 | -98.91598 | 10963 ft | 355 kts | 285° |
| 2026-04-29 23:12 | 23.69219 | -98.94197 | 11476 ft | 357 kts | 286° |
| 2026-04-29 23:13 | 23.70025 | -98.96766 | 12001 ft | 360 kts | 298° |
| 2026-04-29 23:13 | 23.71604 | -98.98875 | 12514 ft | 363 kts | 319° |
| 2026-04-29 23:13 | 23.73773 | -99.00295 | 12985 ft | 366 kts | 335° |
| 2026-04-29 23:13 | 23.75967 | -99.01691 | 13436 ft | 367 kts | 319° |
| 2026-04-29 23:14 | 23.77850 | -99.03577 | 13922 ft | 367 kts | 315° |
| 2026-04-29 23:14 | 23.79673 | -99.05532 | 14336 ft | 369 kts | 314° |
| 2026-04-29 23:14 | 23.81508 | -99.07514 | 14654 ft | 373 kts | 314° |
| 2026-04-29 23:14 | 23.83376 | -99.09509 | 15085 ft | 374 kts | 314° |
| 2026-04-29 23:15 | 23.85245 | -99.11483 | 15528 ft | 374 kts | 314° |
| 2026-04-29 23:15 | 23.87138 | -99.13468 | 15857 ft | 378 kts | 314° |
| 2026-04-29 23:15 | 23.89043 | -99.15457 | 16222 ft | 380 kts | 315° |
| 2026-04-29 23:15 | 23.90935 | -99.17429 | 16586 ft | 381 kts | 315° |
| 2026-04-29 23:16 | 23.92858 | -99.19434 | 16947 ft | 382 kts | 315° |
| 2026-04-29 23:16 | 23.94788 | -99.21445 | 17294 ft | 384 kts | 315° |
| 2026-04-29 23:16 | 23.96730 | -99.23472 | 17627 ft | 386 kts | 315° |
| 2026-04-29 23:16 | 23.98670 | -99.25497 | 17978 ft | 387 kts | 315° |
| 2026-04-29 23:17 | 24.00622 | -99.27539 | 18264 ft | 389 kts | 315° |
| 2026-04-29 23:17 | 24.02578 | -99.29583 | 18524 ft | 390 kts | 314° |
| 2026-04-29 23:17 | 24.04545 | -99.31638 | 18782 ft | 391 kts | 315° |
| 2026-04-29 23:17 | 24.06518 | -99.33698 | 19030 ft | 393 kts | 314° |
| 2026-04-29 23:18 | 24.08492 | -99.35771 | 19275 ft | 394 kts | 314° |
| 2026-04-29 23:18 | 24.10467 | -99.37851 | 19517 ft | 394 kts | 314° |
| 2026-04-29 23:18 | 24.12444 | -99.39939 | 19796 ft | 395 kts | 314° |
| 2026-04-29 23:18 | 24.14424 | -99.42035 | 20023 ft | 397 kts | 314° |
| 2026-04-29 23:19 | 24.16408 | -99.44135 | 20241 ft | 398 kts | 314° |
| 2026-04-29 23:19 | 24.18400 | -99.46246 | 20459 ft | 399 kts | 314° |
| 2026-04-29 23:19 | 24.20399 | -99.48365 | 20680 ft | 400 kts | 314° |
| 2026-04-29 23:19 | 24.22394 | -99.50480 | 20863 ft | 400 kts | 314° |
| 2026-04-29 23:20 | 24.24401 | -99.52610 | 21064 ft | 401 kts | 314° |
| 2026-04-29 23:20 | 24.26404 | -99.54736 | 21310 ft | 402 kts | 314° |
| 2026-04-29 23:20 | 24.28419 | -99.56876 | 21496 ft | 403 kts | 314° |
| 2026-04-29 23:20 | 24.30434 | -99.59017 | 21676 ft | 404 kts | 314° |
| 2026-04-29 23:21 | 24.32425 | -99.61134 | 21921 ft | 403 kts | 314° |
| 2026-04-29 23:21 | 24.34445 | -99.63282 | 22024 ft | 406 kts | 313° |
| 2026-04-29 23:21 | 24.36474 | -99.65441 | 22174 ft | 407 kts | 314° |
| 2026-04-29 23:21 | 24.38505 | -99.67603 | 22337 ft | 408 kts | 314° |
| 2026-04-29 23:22 | 24.40540 | -99.69770 | 22520 ft | 407 kts | 314° |
| 2026-04-29 23:22 | 24.42576 | -99.71933 | 22594 ft | 408 kts | 314° |
| 2026-04-29 23:22 | 24.44611 | -99.74089 | 22800 ft | 405 kts | 314° |
| 2026-04-29 23:22 | 24.46651 | -99.76238 | 22875 ft | 407 kts | 314° |
| 2026-04-29 23:23 | 24.48684 | -99.78420 | 22947 ft | 410 kts | 313° |
| 2026-04-29 23:23 | 24.50729 | -99.80621 | 22996 ft | 411 kts | 314° |
| 2026-04-29 23:23 | 24.52769 | -99.82812 | 23194 ft | 410 kts | 314° |
| 2026-04-29 23:23 | 24.54808 | -99.84997 | 23387 ft | 409 kts | 314° |
| 2026-04-29 23:24 | 24.56848 | -99.87177 | 23455 ft | 410 kts | 314° |
| 2026-04-29 23:24 | 24.58896 | -99.89370 | 23554 ft | 412 kts | 313° |
| 2026-04-29 23:24 | 24.60952 | -99.91574 | 23665 ft | 412 kts | 313° |
| 2026-04-29 23:24 | 24.62979 | -99.93745 | 23790 ft | 412 kts | 314° |
| 2026-04-29 23:25 | 24.65036 | -99.95970 | 23939 ft | 408 kts | 313° |
| 2026-04-29 23:25 | 24.67049 | -99.98122 | 23987 ft | 409 kts | 314° |
| 2026-04-29 23:25 | 24.69103 | -100.00308 | 24034 ft | 413 kts | 313° |
| 2026-04-29 23:25 | 24.71168 | -100.02515 | 24075 ft | 415 kts | 313° |
| 2026-04-29 23:26 | 24.73241 | -100.04736 | 24150 ft | 415 kts | 313° |
| 2026-04-29 23:26 | 24.75310 | -100.06955 | 24242 ft | 415 kts | 313° |
| 2026-04-29 23:26 | 24.77375 | -100.09171 | 24344 ft | 415 kts | 313° |
| 2026-04-29 23:26 | 24.79442 | -100.11390 | 24436 ft | 415 kts | 313° |
| 2026-04-29 23:27 | 24.81511 | -100.13614 | 24497 ft | 416 kts | 313° |
| 2026-04-29 23:27 | 24.83587 | -100.15851 | 24558 ft | 417 kts | 313° |
| 2026-04-29 23:27 | 24.85665 | -100.18092 | 24627 ft | 417 kts | 313° |
| 2026-04-29 23:27 | 24.87742 | -100.20333 | 24667 ft | 419 kts | 313° |
| 2026-04-29 23:28 | 24.89823 | -100.22582 | 24705 ft | 419 kts | 312° |
| 2026-04-29 23:28 | 24.91905 | -100.24829 | 24775 ft | 419 kts | 313° |
| 2026-04-29 23:28 | 24.93985 | -100.27075 | 24837 ft | 419 kts | 313° |
| 2026-04-29 23:28 | 24.96068 | -100.29324 | 24910 ft | 419 kts | 313° |
| 2026-04-29 23:29 | 24.98150 | -100.31567 | 24990 ft | 419 kts | 313° |
| 2026-04-29 23:29 | 25.00240 | -100.33819 | 25092 ft | 419 kts | 313° |
| 2026-04-29 23:29 | 25.02297 | -100.36036 | 25162 ft | 419 kts | 313° |
| 2026-04-29 23:29 | 25.04380 | -100.38285 | 25236 ft | 419 kts | 313° |
| 2026-04-29 23:30 | 25.06463 | -100.40535 | 25315 ft | 419 kts | 313° |
| 2026-04-29 23:30 | 25.08545 | -100.42788 | 25363 ft | 419 kts | 313° |
| 2026-04-29 23:30 | 25.10628 | -100.45042 | 25416 ft | 420 kts | 313° |
| 2026-04-29 23:30 | 25.12714 | -100.47302 | 25441 ft | 421 kts | 313° |
| 2026-04-29 23:31 | 25.14801 | -100.49565 | 25512 ft | 421 kts | 313° |
| 2026-04-29 23:31 | 25.16893 | -100.51832 | 25602 ft | 420 kts | 313° |
| 2026-04-29 23:31 | 25.18976 | -100.54089 | 25624 ft | 421 kts | 313° |
| 2026-04-29 23:31 | 25.21062 | -100.56358 | 25673 ft | 420 kts | 313° |
| 2026-04-29 23:32 | 25.23145 | -100.58622 | 25661 ft | 420 kts | 313° |
| 2026-04-29 23:32 | 25.25232 | -100.60891 | 25671 ft | 422 kts | 313° |
| 2026-04-29 23:32 | 25.27326 | -100.63168 | 25684 ft | 423 kts | 312° |
| 2026-04-29 23:32 | 25.29421 | -100.65449 | 25702 ft | 423 kts | 312° |
| 2026-04-29 23:33 | 25.31514 | -100.67730 | 25767 ft | 423 kts | 312° |
| 2026-04-29 23:33 | 25.32903 | -100.69243 | 25787 ft | 423 kts | 312° |
| 2026-04-29 23:33 | 25.35001 | -100.71528 | 25805 ft | 424 kts | 312° |
| 2026-04-29 23:33 | 25.37105 | -100.73819 | 25817 ft | 425 kts | 312° |
| 2026-04-29 23:34 | 25.39209 | -100.76115 | 25875 ft | 425 kts | 312° |
| 2026-04-29 23:34 | 25.41313 | -100.78413 | 25955 ft | 424 kts | 312° |
| 2026-04-29 23:34 | 25.43411 | -100.80708 | 26032 ft | 424 kts | 312° |
| 2026-04-29 23:34 | 25.45508 | -100.83008 | 26065 ft | 425 kts | 312° |
| 2026-04-29 23:35 | 25.47605 | -100.85311 | 26090 ft | 425 kts | 312° |
| 2026-04-29 23:35 | 25.49704 | -100.87615 | 26123 ft | 426 kts | 312° |
| 2026-04-29 23:35 | 25.51806 | -100.89922 | 26150 ft | 426 kts | 312° |
| 2026-04-29 23:35 | 25.53907 | -100.92228 | 26193 ft | 425 kts | 311° |
| 2026-04-29 23:36 | 25.55855 | -100.94683 | 26201 ft | 423 kts | 304° |
| 2026-04-29 23:36 | 25.57610 | -100.97285 | 26230 ft | 422 kts | 303° |
| 2026-04-29 23:36 | 25.59334 | -100.99917 | 26258 ft | 422 kts | 303° |
| 2026-04-29 23:36 | 25.61052 | -101.02555 | 26256 ft | 422 kts | 303° |
| 2026-04-29 23:37 | 25.62780 | -101.05198 | 26249 ft | 423 kts | 303° |
| 2026-04-29 23:37 | 25.64509 | -101.07827 | 26239 ft | 423 kts | 303° |
| 2026-04-29 23:37 | 25.66252 | -101.10464 | 26241 ft | 423 kts | 303° |
| 2026-04-29 23:37 | 25.67974 | -101.13061 | 26244 ft | 423 kts | 304° |
| 2026-04-29 23:38 | 25.69719 | -101.15690 | 26244 ft | 423 kts | 304° |
| 2026-04-29 23:38 | 25.71463 | -101.18318 | 26243 ft | 423 kts | 304° |
| 2026-04-29 23:38 | 25.73200 | -101.20936 | 26270 ft | 422 kts | 303° |
| 2026-04-29 23:38 | 25.74946 | -101.23570 | 26261 ft | 421 kts | 303° |
| 2026-04-29 23:39 | 25.76680 | -101.26187 | 26305 ft | 421 kts | 303° |
| 2026-04-29 23:39 | 25.78414 | -101.28806 | 26311 ft | 421 kts | 303° |
| 2026-04-29 23:39 | 25.80149 | -101.31429 | 26305 ft | 422 kts | 303° |
| 2026-04-29 23:39 | 25.81885 | -101.34056 | 26328 ft | 422 kts | 303° |
| 2026-04-29 23:40 | 25.83622 | -101.36685 | 26332 ft | 422 kts | 303° |
| 2026-04-29 23:40 | 25.85354 | -101.39308 | 26338 ft | 422 kts | 303° |
| 2026-04-29 23:40 | 25.87094 | -101.41944 | 26361 ft | 422 kts | 303° |
| 2026-04-29 23:40 | 25.88830 | -101.44578 | 26357 ft | 422 kts | 303° |
| 2026-04-29 23:41 | 25.90562 | -101.47205 | 26376 ft | 422 kts | 303° |
| 2026-04-29 23:41 | 25.92294 | -101.49835 | 26391 ft | 422 kts | 303° |
| 2026-04-29 23:41 | 25.94003 | -101.52435 | 26392 ft | 422 kts | 303° |
| 2026-04-29 23:41 | 25.95756 | -101.55102 | 26407 ft | 422 kts | 303° |
| 2026-04-29 23:42 | 25.97489 | -101.57734 | 26409 ft | 422 kts | 303° |
| 2026-04-29 23:42 | 25.99199 | -101.60331 | 26439 ft | 422 kts | 303° |
| 2026-04-29 23:42 | 26.00936 | -101.62971 | 26426 ft | 422 kts | 303° |
| 2026-04-29 23:42 | 26.02669 | -101.65605 | 26453 ft | 422 kts | 303° |
| 2026-04-29 23:43 | 26.04403 | -101.68244 | 26486 ft | 422 kts | 303° |
| 2026-04-29 23:43 | 26.06131 | -101.70877 | 26531 ft | 422 kts | 303° |
| 2026-04-29 23:43 | 26.07862 | -101.73517 | 26559 ft | 422 kts | 303° |
| 2026-04-29 23:43 | 26.09587 | -101.76151 | 26597 ft | 421 kts | 303° |
| 2026-04-29 23:44 | 26.11308 | -101.78781 | 26649 ft | 419 kts | 303° |
| 2026-04-29 23:44 | 26.13028 | -101.81411 | 26650 ft | 420 kts | 303° |
| 2026-04-29 23:44 | 26.14744 | -101.84037 | 26661 ft | 420 kts | 303° |
| 2026-04-29 23:44 | 26.16460 | -101.86664 | 26668 ft | 419 kts | 303° |
| 2026-04-29 23:45 | 26.18172 | -101.89287 | 26743 ft | 418 kts | 303° |
| 2026-04-29 23:45 | 26.19883 | -101.91909 | 26715 ft | 419 kts | 303° |
| 2026-04-29 23:45 | 26.21593 | -101.94532 | 26718 ft | 418 kts | 303° |
| 2026-04-29 23:45 | 26.23303 | -101.97156 | 26706 ft | 418 kts | 303° |
| 2026-04-29 23:46 | 26.25004 | -101.99769 | 26748 ft | 417 kts | 303° |
| 2026-04-29 23:46 | 26.26708 | -102.02387 | 26751 ft | 418 kts | 303° |
| 2026-04-29 23:46 | 26.28414 | -102.05011 | 26763 ft | 418 kts | 303° |
| 2026-04-29 23:46 | 26.30122 | -102.07636 | 26787 ft | 417 kts | 303° |
| 2026-04-29 23:47 | 26.31822 | -102.10252 | 26807 ft | 417 kts | 303° |
| 2026-04-29 23:47 | 26.33528 | -102.12879 | 26831 ft | 417 kts | 303° |
| 2026-04-29 23:47 | 26.35228 | -102.15498 | 26884 ft | 417 kts | 303° |
| 2026-04-29 23:47 | 26.36927 | -102.18118 | 26888 ft | 417 kts | 302° |
| 2026-04-29 23:48 | 26.38626 | -102.20738 | 26889 ft | 417 kts | 302° |
| 2026-04-29 23:48 | 26.40325 | -102.23358 | 26908 ft | 417 kts | 302° |
| 2026-04-29 23:48 | 26.42023 | -102.25981 | 26909 ft | 417 kts | 302° |
| 2026-04-29 23:48 | 26.43697 | -102.28569 | 26919 ft | 417 kts | 302° |
| 2026-04-29 23:49 | 26.45394 | -102.31193 | 26925 ft | 417 kts | 302° |
| 2026-04-29 23:49 | 26.47112 | -102.33851 | 26925 ft | 417 kts | 302° |
| 2026-04-29 23:49 | 26.48788 | -102.36440 | 26981 ft | 417 kts | 302° |
| 2026-04-29 23:49 | 26.50486 | -102.39071 | 26988 ft | 417 kts | 302° |
| 2026-04-29 23:50 | 26.52181 | -102.41698 | 27037 ft | 417 kts | 302° |
| 2026-04-29 23:50 | 26.53875 | -102.44327 | 27040 ft | 417 kts | 302° |
| 2026-04-29 23:50 | 26.57264 | -102.49587 | 27044 ft | 417 kts | 302° |
| 2026-04-29 23:51 | 26.58957 | -102.52217 | 27042 ft | 418 kts | 302° |
| 2026-04-29 23:51 | 26.60653 | -102.54853 | 27045 ft | 418 kts | 302° |
| 2026-04-29 23:51 | 26.62350 | -102.57490 | 27076 ft | 417 kts | 302° |
| 2026-04-29 23:51 | 26.64040 | -102.60120 | 27078 ft | 417 kts | 302° |
| 2026-04-29 23:52 | 26.65727 | -102.62745 | 27115 ft | 416 kts | 302° |
| 2026-04-29 23:52 | 26.67417 | -102.65378 | 27123 ft | 416 kts | 302° |
| 2026-04-29 23:52 | 26.69101 | -102.68004 | 27127 ft | 415 kts | 302° |
| 2026-04-29 23:52 | 26.70786 | -102.70631 | 27129 ft | 415 kts | 302° |
| 2026-04-29 23:53 | 26.72468 | -102.73256 | 27139 ft | 415 kts | 302° |
| 2026-04-29 23:53 | 26.74148 | -102.75879 | 27141 ft | 415 kts | 302° |
| 2026-04-29 23:53 | 26.75831 | -102.78509 | 27185 ft | 414 kts | 302° |
| 2026-04-29 23:53 | 26.77507 | -102.81127 | 27252 ft | 414 kts | 302° |
| 2026-04-29 23:54 | 26.79189 | -102.83750 | 27260 ft | 414 kts | 302° |
| 2026-04-29 23:54 | 26.80862 | -102.86370 | 27268 ft | 414 kts | 302° |
| 2026-04-29 23:54 | 26.82540 | -102.89001 | 27275 ft | 414 kts | 302° |
| 2026-04-29 23:54 | 26.84210 | -102.91631 | 27280 ft | 414 kts | 302° |
| 2026-04-29 23:55 | 26.85885 | -102.94258 | 27288 ft | 415 kts | 302° |
| 2026-04-29 23:55 | 26.87564 | -102.96884 | 27313 ft | 415 kts | 302° |
| 2026-04-29 23:55 | 26.89240 | -102.99513 | 27314 ft | 415 kts | 302° |
| 2026-04-29 23:55 | 26.90916 | -103.02143 | 27316 ft | 415 kts | 302° |
| 2026-04-29 23:56 | 26.92590 | -103.04774 | 27321 ft | 415 kts | 302° |
| 2026-04-29 23:56 | 26.94260 | -103.07400 | 27310 ft | 414 kts | 302° |
| 2026-04-29 23:56 | 26.95915 | -103.10004 | 27318 ft | 414 kts | 302° |
| 2026-04-29 23:56 | 26.97585 | -103.12635 | 27316 ft | 414 kts | 302° |
| 2026-04-29 23:57 | 26.99256 | -103.15267 | 27311 ft | 414 kts | 302° |
| 2026-04-29 23:57 | 27.00928 | -103.17901 | 27316 ft | 414 kts | 302° |
| 2026-04-29 23:57 | 27.02596 | -103.20533 | 27357 ft | 413 kts | 302° |
| 2026-04-29 23:57 | 27.04260 | -103.23150 | 27403 ft | 412 kts | 302° |
| 2026-04-29 23:58 | 27.05920 | -103.25771 | 27408 ft | 412 kts | 302° |
| 2026-04-29 23:58 | 27.07580 | -103.28396 | 27415 ft | 412 kts | 302° |
| 2026-04-29 23:58 | 27.09246 | -103.31033 | 27423 ft | 414 kts | 302° |
| 2026-04-29 23:58 | 27.10911 | -103.33667 | 27445 ft | 414 kts | 302° |
| 2026-04-29 23:59 | 27.12580 | -103.36304 | 27447 ft | 414 kts | 302° |
| 2026-04-29 23:59 | 27.14245 | -103.38943 | 27449 ft | 415 kts | 302° |
| 2026-04-29 23:59 | 27.15911 | -103.41585 | 27453 ft | 415 kts | 302° |
| 2026-04-29 23:59 | 27.17578 | -103.44229 | 27455 ft | 415 kts | 302° |
| 2026-04-30 00:00 | 27.19245 | -103.46875 | 27459 ft | 415 kts | 302° |
| 2026-04-30 00:00 | 27.20910 | -103.49518 | 27481 ft | 414 kts | 302° |
| 2026-04-30 00:00 | 27.22575 | -103.52163 | 27473 ft | 415 kts | 302° |
| 2026-04-30 00:00 | 27.24241 | -103.54810 | 27484 ft | 415 kts | 302° |
| 2026-04-30 00:01 | 27.25884 | -103.57423 | 27515 ft | 414 kts | 302° |
| 2026-04-30 00:01 | 27.27567 | -103.60101 | 27526 ft | 414 kts | 302° |
| 2026-04-30 00:01 | 27.29207 | -103.62712 | 27539 ft | 414 kts | 302° |
| 2026-04-30 00:01 | 27.30869 | -103.65359 | 27569 ft | 414 kts | 302° |
| 2026-04-30 00:02 | 27.32532 | -103.68009 | 27613 ft | 412 kts | 302° |
| 2026-04-30 00:02 | 27.34179 | -103.70637 | 27666 ft | 411 kts | 301° |
| 2026-04-30 00:02 | 27.35822 | -103.73256 | 27740 ft | 410 kts | 302° |
| 2026-04-30 00:02 | 27.37467 | -103.75879 | 27795 ft | 411 kts | 302° |
| 2026-04-30 00:03 | 27.39121 | -103.78519 | 27804 ft | 413 kts | 301° |
| 2026-04-30 00:03 | 27.40769 | -103.81161 | 27812 ft | 413 kts | 301° |
| 2026-04-30 00:03 | 27.42421 | -103.83808 | 27817 ft | 413 kts | 301° |
| 2026-04-30 00:03 | 27.44073 | -103.86454 | 27856 ft | 413 kts | 301° |
| 2026-04-30 00:04 | 27.45724 | -103.89099 | 27876 ft | 413 kts | 301° |
| 2026-04-30 00:04 | 27.47374 | -103.91743 | 27876 ft | 413 kts | 301° |
| 2026-04-30 00:04 | 27.49023 | -103.94387 | 27885 ft | 413 kts | 301° |
| 2026-04-30 00:04 | 27.50653 | -103.97004 | 27886 ft | 413 kts | 301° |
| 2026-04-30 00:05 | 27.52303 | -103.99652 | 27910 ft | 412 kts | 301° |
| 2026-04-30 00:05 | 27.53952 | -104.02303 | 27913 ft | 413 kts | 301° |
| 2026-04-30 00:05 | 27.55596 | -104.04947 | 27912 ft | 413 kts | 301° |
| 2026-04-30 00:05 | 27.57243 | -104.07596 | 27917 ft | 413 kts | 301° |
| 2026-04-30 00:06 | 27.58889 | -104.10247 | 27923 ft | 412 kts | 301° |
| 2026-04-30 00:06 | 27.60534 | -104.12897 | 27927 ft | 412 kts | 301° |
| 2026-04-30 00:06 | 27.62174 | -104.15542 | 27932 ft | 412 kts | 301° |
| 2026-04-30 00:06 | 27.63818 | -104.18195 | 27949 ft | 412 kts | 301° |
| 2026-04-30 00:07 | 27.65460 | -104.20847 | 27950 ft | 412 kts | 301° |
| 2026-04-30 00:07 | 27.67101 | -104.23500 | 27949 ft | 412 kts | 301° |
| 2026-04-30 00:07 | 27.68743 | -104.26152 | 27956 ft | 412 kts | 301° |
| 2026-04-30 00:07 | 27.70387 | -104.28808 | 27961 ft | 413 kts | 301° |
| 2026-04-30 00:08 | 27.71940 | -104.31519 | 27967 ft | 410 kts | 295° |
| 2026-04-30 00:08 | 27.73274 | -104.34353 | 27996 ft | 409 kts | 294° |
| 2026-04-30 00:08 | 27.74558 | -104.37222 | 28012 ft | 408 kts | 293° |
| 2026-04-30 00:09 | 27.77099 | -104.42961 | 28026 ft | 409 kts | 293° |
| 2026-04-30 00:09 | 27.79672 | -104.48700 | 28030 ft | 409 kts | 294° |
| 2026-04-30 00:10 | 27.82263 | -104.54437 | 28027 ft | 410 kts | 294° |
| 2026-04-30 00:10 | 27.84852 | -104.60168 | 28035 ft | 410 kts | 294° |
| 2026-04-30 00:11 | 27.87443 | -104.65909 | 28057 ft | 410 kts | 293° |
| 2026-04-30 00:11 | 27.90031 | -104.71654 | 28078 ft | 410 kts | 293° |
| 2026-04-30 00:12 | 27.92593 | -104.77351 | 28088 ft | 410 kts | 293° |
| 2026-04-30 00:12 | 27.95176 | -104.83106 | 28097 ft | 410 kts | 293° |
| 2026-04-30 00:13 | 27.97757 | -104.88864 | 28101 ft | 410 kts | 293° |
| 2026-04-30 00:13 | 28.00334 | -104.94625 | 28097 ft | 410 kts | 293° |
| 2026-04-30 00:14 | 28.02870 | -105.00352 | 28117 ft | 409 kts | 293° |
| 2026-04-30 00:14 | 28.05416 | -105.06125 | 28124 ft | 410 kts | 293° |
| 2026-04-30 00:15 | 28.07957 | -105.11900 | 28132 ft | 410 kts | 293° |
| 2026-04-30 00:15 | 28.10498 | -105.17680 | 28159 ft | 410 kts | 292° |
| 2026-04-30 00:16 | 28.13030 | -105.23446 | 28167 ft | 407 kts | 292° |
| 2026-04-30 00:16 | 28.15549 | -105.29188 | 28197 ft | 406 kts | 292° |
| 2026-04-30 00:17 | 28.18061 | -105.34925 | 28193 ft | 406 kts | 292° |
| 2026-04-30 00:17 | 28.20569 | -105.40662 | 28195 ft | 406 kts | 292° |
| 2026-04-30 00:18 | 28.22653 | -105.45434 | 28200 ft | 406 kts | 292° |
| 2026-04-30 00:18 | 28.25565 | -105.52113 | 28210 ft | 406 kts | 292° |
| 2026-04-30 00:19 | 28.27642 | -105.56884 | 28213 ft | 405 kts | 292° |
| 2026-04-30 00:19 | 28.30135 | -105.62616 | 28218 ft | 404 kts | 292° |
| 2026-04-30 00:20 | 28.32619 | -105.68324 | 28246 ft | 403 kts | 292° |
| 2026-04-30 00:20 | 28.35086 | -105.74022 | 28315 ft | 401 kts | 292° |
| 2026-04-30 00:21 | 28.37548 | -105.79709 | 28345 ft | 401 kts | 292° |
| 2026-04-30 00:21 | 28.40007 | -105.85401 | 28353 ft | 402 kts | 292° |
| 2026-04-30 00:22 | 28.42467 | -105.91099 | 28357 ft | 402 kts | 292° |
| 2026-04-30 00:22 | 28.43699 | -105.93956 | 28458 ft | 402 kts | 292° |
| 2026-04-30 00:22 | 28.44927 | -105.96805 | 28471 ft | 402 kts | 292° |
| 2026-04-30 00:23 | 28.47385 | -106.02514 | 28480 ft | 402 kts | 292° |
| 2026-04-30 00:23 | 28.49840 | -106.08216 | 28458 ft | 401 kts | 292° |
| 2026-04-30 00:24 | 28.52275 | -106.13892 | 28514 ft | 399 kts | 292° |
| 2026-04-30 00:24 | 28.54694 | -106.19540 | 28525 ft | 400 kts | 292° |
| 2026-04-30 00:25 | 28.57127 | -106.25227 | 28575 ft | 400 kts | 292° |
| 2026-04-30 00:25 | 28.59590 | -106.31016 | 28788 ft | 414 kts | 292° |
| 2026-04-30 00:25 | 28.60849 | -106.33978 | 29057 ft | 417 kts | 292° |
| 2026-04-30 00:26 | 28.62117 | -106.36955 | 29439 ft | 419 kts | 292° |
| 2026-04-30 00:26 | 28.63389 | -106.39934 | 30003 ft | 415 kts | 292° |
| 2026-04-30 00:26 | 28.64643 | -106.42869 | 30526 ft | 412 kts | 291° |
| 2026-04-30 00:26 | 28.65894 | -106.45806 | 30970 ft | 411 kts | 291° |
| 2026-04-30 00:27 | 28.67140 | -106.48740 | 31324 ft | 412 kts | 291° |
| 2026-04-30 00:27 | 28.68385 | -106.51674 | 31776 ft | 411 kts | 291° |
| 2026-04-30 00:27 | 28.69626 | -106.54595 | 32290 ft | 408 kts | 291° |
| 2026-04-30 00:27 | 28.70856 | -106.57488 | 32805 ft | 405 kts | 291° |
| 2026-04-30 00:28 | 28.72075 | -106.60361 | 33244 ft | 403 kts | 291° |
| 2026-04-30 00:28 | 28.73296 | -106.63242 | 33666 ft | 402 kts | 290° |
| 2026-04-30 00:28 | 28.74511 | -106.66112 | 34061 ft | 401 kts | 290° |
| 2026-04-30 00:28 | 28.75706 | -106.68936 | 34465 ft | 398 kts | 290° |
| 2026-04-30 00:29 | 28.76902 | -106.71761 | 34898 ft | 395 kts | 290° |
| 2026-04-30 00:29 | 28.78093 | -106.74580 | 35248 ft | 394 kts | 290° |
| 2026-04-30 00:29 | 28.79280 | -106.77387 | 35695 ft | 390 kts | 290° |
| 2026-04-30 00:29 | 28.80465 | -106.80157 | 35938 ft | 390 kts | 290° |
| 2026-04-30 00:30 | 28.81662 | -106.82941 | 35944 ft | 390 kts | 290° |
| 2026-04-30 00:30 | 28.84046 | -106.88478 | 35954 ft | 388 kts | 290° |
| 2026-04-30 00:31 | 28.86417 | -106.94000 | 35961 ft | 386 kts | 290° |
| 2026-04-30 00:31 | 28.88767 | -106.99488 | 35966 ft | 384 kts | 290° |
| 2026-04-30 00:32 | 28.91111 | -107.04970 | 35971 ft | 384 kts | 290° |
| 2026-04-30 00:32 | 28.93440 | -107.10433 | 35972 ft | 384 kts | 289° |
| 2026-04-30 00:33 | 28.95780 | -107.15919 | 35963 ft | 384 kts | 289° |
| 2026-04-30 00:33 | 28.98107 | -107.21381 | 36007 ft | 382 kts | 289° |
| 2026-04-30 00:34 | 29.00445 | -107.26916 | 36009 ft | 390 kts | 290° |
| 2026-04-30 00:34 | 29.02834 | -107.32516 | 35968 ft | 393 kts | 290° |
| 2026-04-30 00:35 | 29.05224 | -107.38130 | 35991 ft | 392 kts | 290° |
| 2026-04-30 00:35 | 29.07611 | -107.43747 | 35976 ft | 393 kts | 290° |
| 2026-04-30 00:36 | 29.09992 | -107.49365 | 35984 ft | 392 kts | 289° |
| 2026-04-30 00:36 | 29.12368 | -107.54980 | 35986 ft | 391 kts | 289° |
| 2026-04-30 00:37 | 29.14734 | -107.60588 | 35983 ft | 391 kts | 289° |
| 2026-04-30 00:37 | 29.17080 | -107.66184 | 36003 ft | 390 kts | 289° |
| 2026-04-30 00:38 | 29.19432 | -107.71778 | 35998 ft | 390 kts | 289° |
| 2026-04-30 00:38 | 29.21753 | -107.77385 | 36027 ft | 389 kts | 289° |
| 2026-04-30 00:39 | 29.24067 | -107.82943 | 36012 ft | 389 kts | 289° |
| 2026-04-30 00:39 | 29.26403 | -107.88536 | 36007 ft | 389 kts | 289° |
| 2026-04-30 00:40 | 29.28735 | -107.94125 | 36015 ft | 389 kts | 289° |
| 2026-04-30 00:40 | 29.31060 | -107.99715 | 36013 ft | 389 kts | 289° |
| 2026-04-30 00:41 | 29.33383 | -108.05314 | 36014 ft | 389 kts | 289° |
| 2026-04-30 00:41 | 29.35706 | -108.10921 | 36017 ft | 389 kts | 289° |
| 2026-04-30 00:42 | 29.38025 | -108.16527 | 36010 ft | 389 kts | 289° |
| 2026-04-30 00:42 | 29.40344 | -108.22139 | 36019 ft | 390 kts | 289° |
| 2026-04-30 00:43 | 29.42669 | -108.27779 | 36009 ft | 391 kts | 289° |
| 2026-04-30 00:43 | 29.44993 | -108.33421 | 36010 ft | 392 kts | 289° |
| 2026-04-30 00:44 | 29.47319 | -108.39074 | 36013 ft | 392 kts | 289° |
| 2026-04-30 00:44 | 29.49640 | -108.44731 | 36006 ft | 391 kts | 288° |
| 2026-04-30 00:45 | 29.51950 | -108.50359 | 36000 ft | 390 kts | 288° |
| 2026-04-30 00:45 | 29.54186 | -108.55987 | 36004 ft | 381 kts | 287° |
| 2026-04-30 00:46 | 29.56541 | -108.61447 | 35966 ft | 384 kts | 289° |
| 2026-04-30 00:46 | 29.58819 | -108.67002 | 35976 ft | 384 kts | 288° |
| 2026-04-30 00:47 | 29.61079 | -108.72577 | 35962 ft | 386 kts | 288° |
| 2026-04-30 00:47 | 29.63340 | -108.78164 | 35968 ft | 386 kts | 288° |
| 2026-04-30 00:48 | 29.65627 | -108.83752 | 35970 ft | 387 kts | 288° |
| 2026-04-30 00:48 | 29.67899 | -108.89349 | 35916 ft | 386 kts | 288° |
| 2026-04-30 00:49 | 29.70169 | -108.94925 | 35930 ft | 385 kts | 288° |
| 2026-04-30 00:49 | 29.72440 | -109.00502 | 35916 ft | 385 kts | 288° |
| 2026-04-30 00:50 | 29.74702 | -109.06075 | 35914 ft | 384 kts | 288° |
| 2026-04-30 00:50 | 29.76957 | -109.11630 | 35924 ft | 383 kts | 287° |
| 2026-04-30 00:51 | 29.79193 | -109.17194 | 35889 ft | 382 kts | 288° |
| 2026-04-30 00:51 | 29.81447 | -109.22722 | 35923 ft | 381 kts | 287° |
| 2026-04-30 00:52 | 29.83676 | -109.28263 | 35888 ft | 382 kts | 287° |
| 2026-04-30 00:52 | 29.85906 | -109.33813 | 35898 ft | 381 kts | 287° |
| 2026-04-30 00:53 | 29.88132 | -109.39350 | 35899 ft | 381 kts | 288° |
| 2026-04-30 00:53 | 29.90350 | -109.44890 | 35890 ft | 380 kts | 288° |
| 2026-04-30 00:54 | 29.92568 | -109.50421 | 35906 ft | 381 kts | 288° |
| 2026-04-30 00:54 | 29.94783 | -109.55952 | 35894 ft | 383 kts | 287° |
| 2026-04-30 00:55 | 29.97012 | -109.61544 | 35897 ft | 384 kts | 287° |
| 2026-04-30 00:55 | 30.00361 | -109.69962 | 35919 ft | 385 kts | 287° |
| 2026-04-30 00:56 | 30.02597 | -109.75589 | 35916 ft | 385 kts | 287° |
| 2026-04-30 00:56 | 30.04825 | -109.81211 | 35898 ft | 385 kts | 287° |
| 2026-04-30 00:57 | 30.07048 | -109.86823 | 35914 ft | 384 kts | 288° |
| 2026-04-30 00:57 | 30.09264 | -109.92420 | 35916 ft | 384 kts | 287° |
| 2026-04-30 00:58 | 30.11459 | -109.97993 | 35920 ft | 384 kts | 287° |
| 2026-04-30 00:58 | 30.13666 | -110.03600 | 35921 ft | 383 kts | 287° |
| 2026-04-30 00:59 | 30.15869 | -110.09200 | 35922 ft | 383 kts | 287° |
| 2026-04-30 00:59 | 30.18069 | -110.14810 | 35935 ft | 384 kts | 287° |
| 2026-04-30 01:00 | 30.20277 | -110.20435 | 35960 ft | 384 kts | 287° |
| 2026-04-30 01:00 | 30.22479 | -110.26053 | 35923 ft | 383 kts | 287° |
| 2026-04-30 01:01 | 30.24671 | -110.31656 | 35937 ft | 381 kts | 287° |
| 2026-04-30 01:01 | 30.26852 | -110.37241 | 35909 ft | 379 kts | 287° |
| 2026-04-30 01:02 | 30.29017 | -110.42794 | 35920 ft | 378 kts | 287° |
| 2026-04-30 01:02 | 30.31179 | -110.48345 | 35919 ft | 378 kts | 287° |
| 2026-04-30 01:03 | 30.33337 | -110.53905 | 35918 ft | 379 kts | 287° |
| 2026-04-30 01:03 | 30.35483 | -110.59436 | 35917 ft | 380 kts | 287° |
| 2026-04-30 01:04 | 30.37291 | -110.64105 | 35904 ft | 380 kts | 287° |
| 2026-04-30 01:04 | 30.39810 | -110.70606 | 35934 ft | 381 kts | 286° |
| 2026-04-30 01:05 | 30.41974 | -110.76215 | 35916 ft | 381 kts | 286° |
| 2026-04-30 01:05 | 30.43787 | -110.80917 | 35917 ft | 382 kts | 286° |
| 2026-04-30 01:06 | 30.45940 | -110.86507 | 35922 ft | 383 kts | 286° |
| 2026-04-30 01:06 | 30.48110 | -110.92150 | 35916 ft | 383 kts | 286° |
| 2026-04-30 01:07 | 30.50277 | -110.97793 | 35912 ft | 383 kts | 286° |
| 2026-04-30 01:07 | 30.52414 | -111.03441 | 35905 ft | 382 kts | 285° |
| 2026-04-30 01:08 | 30.54519 | -111.09095 | 35907 ft | 382 kts | 285° |
| 2026-04-30 01:08 | 30.56622 | -111.14751 | 35898 ft | 381 kts | 285° |
| 2026-04-30 01:09 | 30.58720 | -111.20397 | 35912 ft | 380 kts | 285° |
| 2026-04-30 01:09 | 30.60811 | -111.26027 | 35908 ft | 379 kts | 285° |
| 2026-04-30 01:10 | 30.62895 | -111.31643 | 35912 ft | 378 kts | 285° |
| 2026-04-30 01:10 | 30.64973 | -111.37253 | 35911 ft | 378 kts | 285° |
| 2026-04-30 01:11 | 30.67044 | -111.42862 | 35906 ft | 377 kts | 285° |
| 2026-04-30 01:11 | 30.69107 | -111.48453 | 35907 ft | 376 kts | 285° |
| 2026-04-30 01:12 | 30.71170 | -111.54034 | 35914 ft | 376 kts | 285° |
| 2026-04-30 01:12 | 30.73209 | -111.59587 | 35913 ft | 376 kts | 285° |
| 2026-04-30 01:13 | 30.75260 | -111.65178 | 35933 ft | 376 kts | 285° |
| 2026-04-30 01:13 | 30.77315 | -111.70783 | 35918 ft | 377 kts | 285° |
| 2026-04-30 01:14 | 30.79369 | -111.76396 | 35914 ft | 376 kts | 285° |
| 2026-04-30 01:14 | 30.81418 | -111.82002 | 35912 ft | 377 kts | 284° |
| 2026-04-30 01:15 | 30.83466 | -111.87611 | 35915 ft | 377 kts | 284° |
| 2026-04-30 01:15 | 30.85515 | -111.93232 | 35917 ft | 376 kts | 284° |
| 2026-04-30 01:16 | 30.87552 | -111.98834 | 35919 ft | 376 kts | 284° |
| 2026-04-30 01:16 | 30.89580 | -112.04416 | 35918 ft | 376 kts | 284° |
| 2026-04-30 01:17 | 30.91617 | -112.10034 | 35925 ft | 376 kts | 284° |
| 2026-04-30 01:17 | 30.93652 | -112.15653 | 35914 ft | 377 kts | 284° |
| 2026-04-30 01:18 | 30.95693 | -112.21271 | 35942 ft | 377 kts | 284° |
| 2026-04-30 01:18 | 30.97731 | -112.26924 | 35921 ft | 379 kts | 284° |
| 2026-04-30 01:19 | 30.99765 | -112.32592 | 35926 ft | 379 kts | 284° |
| 2026-04-30 01:19 | 31.01797 | -112.38247 | 35930 ft | 378 kts | 284° |
| 2026-04-30 01:20 | 31.03829 | -112.43902 | 35937 ft | 377 kts | 284° |
| 2026-04-30 01:20 | 31.05853 | -112.49545 | 35929 ft | 377 kts | 284° |
| 2026-04-30 01:21 | 31.07859 | -112.55153 | 35929 ft | 377 kts | 284° |
| 2026-04-30 01:21 | 31.09879 | -112.60803 | 35963 ft | 377 kts | 284° |
| 2026-04-30 01:22 | 31.11898 | -112.66466 | 35948 ft | 378 kts | 284° |
| 2026-04-30 01:22 | 31.13915 | -112.72131 | 35938 ft | 378 kts | 284° |
| 2026-04-30 01:23 | 31.15932 | -112.77798 | 35936 ft | 378 kts | 284° |
| 2026-04-30 01:23 | 31.17945 | -112.83472 | 35937 ft | 378 kts | 283° |
| 2026-04-30 01:24 | 31.19956 | -112.89147 | 35934 ft | 378 kts | 283° |
| 2026-04-30 01:24 | 31.21964 | -112.94823 | 35946 ft | 378 kts | 283° |
| 2026-04-30 01:25 | 31.23972 | -113.00508 | 35946 ft | 378 kts | 283° |
| 2026-04-30 01:25 | 31.25979 | -113.06199 | 35948 ft | 379 kts | 283° |
| 2026-04-30 01:26 | 31.27986 | -113.11901 | 35952 ft | 379 kts | 283° |
| 2026-04-30 01:26 | 31.29993 | -113.17612 | 35947 ft | 380 kts | 283° |
| 2026-04-30 01:27 | 31.32004 | -113.23344 | 35946 ft | 381 kts | 283° |
| 2026-04-30 01:27 | 31.34014 | -113.29082 | 35944 ft | 381 kts | 283° |
| 2026-04-30 01:28 | 31.36009 | -113.34786 | 35944 ft | 381 kts | 283° |
| 2026-04-30 01:28 | 31.38016 | -113.40536 | 35944 ft | 381 kts | 283° |
| 2026-04-30 01:29 | 31.40020 | -113.46286 | 35923 ft | 381 kts | 283° |
| 2026-04-30 01:29 | 31.42020 | -113.52036 | 35930 ft | 381 kts | 283° |
| 2026-04-30 01:30 | 31.44020 | -113.57797 | 35934 ft | 382 kts | 283° |
| 2026-04-30 01:30 | 31.46020 | -113.63564 | 35928 ft | 382 kts | 283° |
| 2026-04-30 01:31 | 31.48015 | -113.69328 | 35920 ft | 382 kts | 283° |
| 2026-04-30 01:31 | 31.50009 | -113.75099 | 35908 ft | 382 kts | 283° |
| 2026-04-30 01:32 | 31.51999 | -113.80869 | 35914 ft | 381 kts | 283° |
| 2026-04-30 01:32 | 31.53985 | -113.86635 | 35915 ft | 381 kts | 283° |
| 2026-04-30 01:33 | 31.55966 | -113.92400 | 35907 ft | 381 kts | 282° |
| 2026-04-30 01:33 | 31.57933 | -113.98132 | 35904 ft | 381 kts | 282° |
| 2026-04-30 01:34 | 31.59915 | -114.03918 | 35928 ft | 382 kts | 282° |
| 2026-04-30 01:34 | 31.61892 | -114.09701 | 35897 ft | 382 kts | 282° |
| 2026-04-30 01:35 | 31.63869 | -114.15492 | 35901 ft | 382 kts | 282° |
| 2026-04-30 01:35 | 31.65847 | -114.21302 | 35755 ft | 385 kts | 282° |
| 2026-04-30 01:36 | 31.66841 | -114.24228 | 35465 ft | 386 kts | 282° |
| 2026-04-30 01:36 | 31.67837 | -114.27154 | 35190 ft | 385 kts | 282° |
| 2026-04-30 01:36 | 31.68811 | -114.30010 | 34859 ft | 379 kts | 282° |
| 2026-04-30 01:36 | 31.69786 | -114.32871 | 34502 ft | 375 kts | 282° |
| 2026-04-30 01:37 | 31.70747 | -114.35697 | 34158 ft | 370 kts | 282° |
| 2026-04-30 01:37 | 31.71695 | -114.38493 | 33797 ft | 368 kts | 282° |
| 2026-04-30 01:37 | 31.72644 | -114.41302 | 33412 ft | 370 kts | 282° |
| 2026-04-30 01:37 | 31.73593 | -114.44123 | 33045 ft | 374 kts | 282° |
| 2026-04-30 01:38 | 31.74551 | -114.46963 | 32658 ft | 372 kts | 282° |
| 2026-04-30 01:38 | 31.75502 | -114.49776 | 32297 ft | 370 kts | 281° |
| 2026-04-30 01:38 | 31.76447 | -114.52573 | 31940 ft | 367 kts | 281° |
| 2026-04-30 01:38 | 31.77387 | -114.55357 | 31573 ft | 365 kts | 281° |
| 2026-04-30 01:39 | 31.78320 | -114.58124 | 31216 ft | 363 kts | 281° |
| 2026-04-30 01:39 | 31.79246 | -114.60877 | 30856 ft | 361 kts | 281° |
| 2026-04-30 01:39 | 31.80166 | -114.63612 | 30508 ft | 359 kts | 281° |
| 2026-04-30 01:39 | 31.81082 | -114.66337 | 30156 ft | 357 kts | 281° |
| 2026-04-30 01:40 | 31.81993 | -114.69053 | 29777 ft | 355 kts | 281° |
| 2026-04-30 01:40 | 31.82899 | -114.71755 | 29376 ft | 354 kts | 281° |
| 2026-04-30 01:40 | 31.83796 | -114.74433 | 28986 ft | 352 kts | 281° |
| 2026-04-30 01:40 | 31.84691 | -114.77107 | 28586 ft | 350 kts | 281° |
| 2026-04-30 01:41 | 31.85580 | -114.79764 | 28197 ft | 348 kts | 282° |
| 2026-04-30 01:41 | 31.86452 | -114.82372 | 27825 ft | 346 kts | 282° |
| 2026-04-30 01:41 | 31.87331 | -114.85005 | 27444 ft | 345 kts | 282° |
| 2026-04-30 01:41 | 31.88216 | -114.87659 | 27065 ft | 343 kts | 282° |
| 2026-04-30 01:42 | 31.89086 | -114.90269 | 26699 ft | 342 kts | 282° |
| 2026-04-30 01:42 | 31.89953 | -114.92870 | 26337 ft | 340 kts | 282° |
| 2026-04-30 01:42 | 31.90801 | -114.95418 | 26017 ft | 337 kts | 283° |
| 2026-04-30 01:42 | 31.91651 | -114.97967 | 25657 ft | 332 kts | 283° |
| 2026-04-30 01:43 | 31.92487 | -115.00477 | 25306 ft | 327 kts | 283° |
| 2026-04-30 01:43 | 31.93312 | -115.02957 | 24934 ft | 324 kts | 283° |
| 2026-04-30 01:43 | 31.94128 | -115.05418 | 24598 ft | 323 kts | 283° |
| 2026-04-30 01:43 | 31.94942 | -115.07880 | 24262 ft | 322 kts | 283° |
| 2026-04-30 01:44 | 31.95755 | -115.10337 | 23935 ft | 322 kts | 284° |
| 2026-04-30 01:44 | 31.96566 | -115.12790 | 23600 ft | 321 kts | 284° |
| 2026-04-30 01:44 | 31.97377 | -115.15243 | 23228 ft | 321 kts | 284° |
| 2026-04-30 01:44 | 31.98188 | -115.17695 | 22840 ft | 320 kts | 284° |
| 2026-04-30 01:45 | 31.98994 | -115.20135 | 22450 ft | 320 kts | 284° |
| 2026-04-30 01:45 | 31.99800 | -115.22578 | 22064 ft | 319 kts | 284° |
| 2026-04-30 01:45 | 32.00601 | -115.25005 | 21687 ft | 318 kts | 284° |
| 2026-04-30 01:45 | 32.01402 | -115.27437 | 21317 ft | 317 kts | 284° |
| 2026-04-30 01:46 | 32.02199 | -115.29855 | 20944 ft | 315 kts | 285° |
| 2026-04-30 01:46 | 32.02986 | -115.32242 | 20577 ft | 311 kts | 285° |
| 2026-04-30 01:46 | 32.03764 | -115.34602 | 20221 ft | 307 kts | 284° |
| 2026-04-30 01:46 | 32.04532 | -115.36939 | 19963 ft | 305 kts | 285° |
| 2026-04-30 01:47 | 32.05302 | -115.39288 | 19957 ft | 308 kts | 285° |
| 2026-04-30 01:47 | 32.06062 | -115.41604 | 19927 ft | 306 kts | 285° |
| 2026-04-30 01:47 | 32.06831 | -115.43948 | 19923 ft | 308 kts | 285° |
| 2026-04-30 01:47 | 32.07611 | -115.46332 | 19922 ft | 308 kts | 285° |
| 2026-04-30 01:48 | 32.08370 | -115.48652 | 19914 ft | 307 kts | 285° |
| 2026-04-30 01:48 | 32.09141 | -115.51008 | 19912 ft | 307 kts | 285° |
| 2026-04-30 01:48 | 32.09906 | -115.53346 | 19931 ft | 306 kts | 285° |
| 2026-04-30 01:48 | 32.10672 | -115.55692 | 19934 ft | 307 kts | 285° |
| 2026-04-30 01:49 | 32.11442 | -115.58051 | 19937 ft | 308 kts | 285° |
| 2026-04-30 01:49 | 32.12213 | -115.60413 | 19930 ft | 309 kts | 285° |
| 2026-04-30 01:49 | 32.12984 | -115.62780 | 19928 ft | 309 kts | 285° |
| 2026-04-30 01:49 | 32.13755 | -115.65141 | 19949 ft | 305 kts | 285° |
| 2026-04-30 01:50 | 32.14504 | -115.67460 | 19736 ft | 302 kts | 284° |
| 2026-04-30 01:50 | 32.15237 | -115.69774 | 19393 ft | 302 kts | 284° |
| 2026-04-30 01:50 | 32.15968 | -115.72100 | 19054 ft | 301 kts | 284° |
| 2026-04-30 01:50 | 32.16693 | -115.74405 | 18661 ft | 299 kts | 284° |
| 2026-04-30 01:51 | 32.17414 | -115.76699 | 18310 ft | 296 kts | 285° |
| 2026-04-30 01:51 | 32.18126 | -115.78965 | 17919 ft | 293 kts | 285° |
| 2026-04-30 01:51 | 32.18830 | -115.81203 | 17581 ft | 288 kts | 284° |
| 2026-04-30 01:51 | 32.19523 | -115.83403 | 17237 ft | 285 kts | 284° |
| 2026-04-30 01:52 | 32.20209 | -115.85589 | 16889 ft | 280 kts | 284° |
| 2026-04-30 01:52 | 32.20878 | -115.87726 | 16593 ft | 277 kts | 287° |
| 2026-04-30 01:52 | 32.21323 | -115.89146 | 16421 ft | 279 kts | 286° |
| 2026-04-30 01:52 | 32.22001 | -115.91313 | 16108 ft | 282 kts | 286° |
| 2026-04-30 01:53 | 32.22685 | -115.93502 | 15787 ft | 286 kts | 287° |
| 2026-04-30 01:53 | 32.23376 | -115.95711 | 15465 ft | 287 kts | 287° |
| 2026-04-30 01:53 | 32.24069 | -115.97928 | 15122 ft | 288 kts | 287° |
| 2026-04-30 01:53 | 32.24766 | -116.00157 | 14808 ft | 288 kts | 287° |
| 2026-04-30 01:54 | 32.25456 | -116.02366 | 14505 ft | 285 kts | 287° |
| 2026-04-30 01:54 | 32.26140 | -116.04554 | 14174 ft | 283 kts | 288° |
| 2026-04-30 01:54 | 32.26817 | -116.06724 | 13855 ft | 280 kts | 288° |
| 2026-04-30 01:54 | 32.27489 | -116.08879 | 13504 ft | 278 kts | 288° |
| 2026-04-30 01:55 | 32.28152 | -116.11006 | 13168 ft | 275 kts | 288° |
| 2026-04-30 01:55 | 32.28810 | -116.13118 | 12848 ft | 273 kts | 288° |
| 2026-04-30 01:55 | 32.29462 | -116.15215 | 12540 ft | 271 kts | 288° |
| 2026-04-30 01:55 | 32.30115 | -116.17316 | 12235 ft | 274 kts | 288° |
| 2026-04-30 01:56 | 32.30775 | -116.19444 | 11932 ft | 277 kts | 288° |
| 2026-04-30 01:56 | 32.31434 | -116.21565 | 11632 ft | 279 kts | 288° |
| 2026-04-30 01:56 | 32.32102 | -116.23713 | 11274 ft | 278 kts | 288° |
| 2026-04-30 01:56 | 32.32764 | -116.25843 | 10999 ft | 276 kts | 288° |
| 2026-04-30 01:57 | 32.33423 | -116.27975 | 10693 ft | 276 kts | 288° |
| 2026-04-30 01:57 | 32.34080 | -116.30104 | 10381 ft | 276 kts | 288° |
| 2026-04-30 01:57 | 32.34739 | -116.32232 | 10068 ft | 275 kts | 288° |
| 2026-04-30 01:57 | 32.35396 | -116.34357 | 9723 ft | 275 kts | 289° |
| 2026-04-30 01:58 | 32.36050 | -116.36480 | 9396 ft | 273 kts | 288° |
| 2026-04-30 01:58 | 32.36698 | -116.38573 | 9073 ft | 269 kts | 288° |
| 2026-04-30 01:58 | 32.37301 | -116.40651 | 8761 ft | 264 kts | 284° |
| 2026-04-30 01:58 | 32.37776 | -116.42734 | 8469 ft | 260 kts | 282° |
| 2026-04-30 01:59 | 32.38647 | -116.46811 | 7900 ft | 256 kts | 282° |
| 2026-04-30 01:59 | 32.39093 | -116.48882 | 7607 ft | 256 kts | 282° |
| 2026-04-30 01:59 | 32.39536 | -116.50914 | 7322 ft | 254 kts | 282° |
| 2026-04-30 02:00 | 32.39977 | -116.52929 | 7035 ft | 252 kts | 282° |
| 2026-04-30 02:00 | 32.40410 | -116.54899 | 6771 ft | 249 kts | 282° |
| 2026-04-30 02:00 | 32.40847 | -116.56876 | 6477 ft | 248 kts | 282° |
| 2026-04-30 02:00 | 32.41285 | -116.58862 | 6180 ft | 249 kts | 282° |
| 2026-04-30 02:01 | 32.41724 | -116.60844 | 5904 ft | 248 kts | 282° |
| 2026-04-30 02:01 | 32.42159 | -116.62816 | 5633 ft | 248 kts | 282° |
| 2026-04-30 02:01 | 32.42656 | -116.64760 | 5343 ft | 247 kts | 290° |
| 2026-04-30 02:01 | 32.43346 | -116.66587 | 5125 ft | 239 kts | 292° |
| 2026-04-30 02:02 | 32.44035 | -116.68345 | 4840 ft | 231 kts | 292° |
| 2026-04-30 02:02 | 32.44690 | -116.70043 | 4578 ft | 223 kts | 292° |
| 2026-04-30 02:02 | 32.45321 | -116.71688 | 4337 ft | 215 kts | 292° |
| 2026-04-30 02:02 | 32.45928 | -116.73276 | 4110 ft | 208 kts | 293° |
| 2026-04-30 02:03 | 32.46509 | -116.74818 | 3880 ft | 201 kts | 292° |
| 2026-04-30 02:03 | 32.47067 | -116.76303 | 3677 ft | 194 kts | 293° |
| 2026-04-30 02:03 | 32.47613 | -116.77753 | 3487 ft | 193 kts | 293° |
| 2026-04-30 02:03 | 32.48158 | -116.79203 | 3290 ft | 190 kts | 293° |
| 2026-04-30 02:04 | 32.48680 | -116.80591 | 3104 ft | 182 kts | 294° |
| 2026-04-30 02:04 | 32.49200 | -116.81976 | 2878 ft | 186 kts | 293° |
| 2026-04-30 02:04 | 32.49718 | -116.83350 | 2622 ft | 180 kts | 292° |
| 2026-04-30 02:04 | 32.50219 | -116.84683 | 2377 ft | 174 kts | 291° |
| 2026-04-30 02:05 | 32.50711 | -116.85991 | 2128 ft | 174 kts | 291° |
| 2026-04-30 02:05 | 32.51197 | -116.87282 | 1951 ft | 166 kts | 293° |
| 2026-04-30 02:05 | 32.51655 | -116.88483 | 1726 ft | 155 kts | 293° |
| 2026-04-30 02:05 | 32.52083 | -116.89624 | 1553 ft | 150 kts | 292° |
| 2026-04-30 02:06 | 32.52512 | -116.90769 | 1339 ft | 157 kts | 292° |
| 2026-04-30 02:06 | 32.52962 | -116.91869 | 1226 ft | 135 kts | 295° |
| 2026-04-30 02:06 | 32.53377 | -116.92854 | 997 ft | 135 kts | 293° |
| 2026-04-30 02:06 | 32.53695 | -116.93892 | 779 ft | 133 kts | 281° |
| 2026-04-30 02:07 | 32.53842 | -116.94943 | 600 ft | 127 kts | 274° |
| 2026-04-30 02:07 | 32.53969 | -116.95950 | 489 ft | 117 kts | 279° |
| 2026-04-30 02:07 | 32.54073 | -116.96753 | 489 ft | 77 kts | 278° |
| 2026-04-30 02:07 | 32.54136 | -116.97223 | 492 ft | 40 kts | 279° |
| 2026-04-30 02:08 | 32.54160 | -116.97411 | 491 ft | 6 kts | 279° |
| 2026-04-30 02:08 | 32.54167 | -116.97459 | 488 ft | 10 kts | 282° |
| 2026-04-30 02:08 | 32.54195 | -116.97570 | 489 ft | 17 kts | 291° |
| 2026-04-30 02:08 | 32.54258 | -116.97690 | 489 ft | 17 kts | 309° |
| 2026-04-30 02:09 | 32.54334 | -116.97787 | 496 ft | 14 kts | 329° |
| 2026-04-30 02:09 | 32.54379 | -116.97754 | 495 ft | 10 kts | 97° |
| 2026-04-30 02:09 | 32.54366 | -116.97676 | 494 ft | 9 kts | 101° |
| 2026-04-30 02:09 | 32.54353 | -116.97600 | 488 ft | 9 kts | 101° |
| 2026-04-30 02:10 | 32.54341 | -116.97527 | 488 ft | 9 kts | 101° |
| 2026-04-30 02:10 | 32.54332 | -116.97453 | 497 ft | 9 kts | 96° |
| 2026-04-30 02:10 | 32.54366 | -116.97416 | 492 ft | 9 kts | 326° |
| 2026-04-30 02:10 | 32.54384 | -116.97483 | 488 ft | 9 kts | 278° |
| 2026-04-30 02:11 | 32.54392 | -116.97555 | 497 ft | 10 kts | 278° |
| 2026-04-30 02:11 | 32.54438 | -116.97595 | 493 ft | 8 kts | 6° |
| 2026-04-30 02:11 | 32.54481 | -116.97567 | 494 ft | 7 kts | 65° |
| 2026-04-30 02:11 | 32.54494 | -116.97518 | 498 ft | 3 kts | 73° |
| 2026-04-30 02:12 | 32.54497 | -116.97508 | 498 ft | 0 kts | 73° |